createdAt,value
2017-09-22T02:00:18.719Z,6.81
2017-09-22T02:00:22.805Z,6.8
2017-09-22T02:00:26.892Z,6.81
2017-09-22T02:00:31.012Z,6.81
2017-09-22T02:00:34.971Z,6.8
2017-09-22T02:00:38.935Z,6.8
2017-09-22T02:00:42.899Z,6.8
2017-09-22T02:00:46.859Z,6.8
2017-09-22T02:00:50.811Z,6.8
2017-09-22T02:00:55.028Z,6.8
2017-09-22T02:00:59.115Z,6.79
2017-09-22T02:01:03.297Z,6.8
2017-09-22T02:01:07.385Z,6.79
2017-09-22T02:01:11.720Z,6.79
2017-09-22T02:01:15.928Z,6.79
2017-09-22T02:01:20.388Z,6.79
2017-09-22T02:01:24.601Z,6.79
2017-09-22T02:01:28.688Z,6.79
2017-09-22T02:01:33.152Z,6.78
2017-09-22T02:01:37.365Z,6.78
2017-09-22T02:01:41.578Z,6.78
2017-09-22T02:01:45.926Z,6.78
2017-09-22T02:01:50.013Z,6.77
2017-09-22T02:01:54.100Z,6.77
2017-09-22T02:01:58.058Z,6.77
2017-09-22T02:02:02.199Z,6.77
2017-09-22T02:02:06.409Z,6.77
2017-09-22T02:02:10.494Z,6.77
2017-09-22T02:02:14.701Z,6.76
2017-09-22T02:02:19.162Z,6.76
2017-09-22T02:02:23.121Z,6.76
2017-09-22T02:02:59.036Z,6.74
2017-09-22T02:03:03.375Z,6.74
2017-09-22T02:03:07.460Z,6.73
2017-09-22T02:03:11.682Z,6.73
2017-09-22T02:03:15.762Z,6.74
2017-09-22T02:03:20.092Z,6.73
2017-09-22T02:03:24.188Z,6.73
2017-09-22T02:03:28.526Z,6.74
2017-09-22T02:03:32.612Z,6.73
2017-09-22T02:03:36.828Z,6.74
2017-09-22T02:03:41.040Z,6.72
2017-09-22T02:03:45.376Z,6.73
2017-09-22T02:03:49.590Z,6.72
2017-09-22T02:03:53.805Z,6.72
2017-09-22T02:03:57.901Z,6.72
2017-09-22T02:04:02.497Z,6.72
2017-09-22T02:04:06.580Z,6.72
2017-09-22T02:04:10.794Z,6.72
2017-09-22T02:04:14.881Z,6.71
2017-09-22T02:04:19.095Z,6.7
2017-09-22T02:04:23.302Z,6.71
2017-09-22T02:04:27.644Z,6.71
2017-09-22T02:04:31.857Z,6.71
2017-09-22T02:04:36.076Z,6.71
2017-09-22T02:04:40.285Z,6.7
2017-09-22T02:04:44.503Z,6.7
2017-09-22T02:04:48.585Z,6.71
2017-09-22T02:04:52.679Z,6.71
2017-09-22T02:04:57.015Z,6.7
2017-09-22T02:05:01.098Z,6.69
2017-09-22T02:05:05.739Z,6.7
2017-09-22T02:05:10.075Z,6.69
2017-09-22T02:05:14.161Z,6.7
2017-09-22T02:05:18.503Z,6.69
2017-09-22T02:05:22.584Z,6.7
2017-09-22T02:05:26.669Z,6.7
2017-09-22T02:05:31.005Z,6.69
2017-09-22T02:05:35.339Z,6.69
2017-09-22T02:05:39.556Z,6.69
2017-09-22T02:05:43.903Z,6.69
2017-09-22T02:05:47.864Z,6.69
2017-09-22T02:05:51.699Z,6.68
2017-09-22T02:05:55.915Z,6.69
2017-09-22T02:05:59.874Z,6.69
2017-09-22T02:06:04.346Z,6.69
2017-09-22T02:06:08.182Z,6.69
2017-09-22T02:06:12.138Z,6.69
2017-09-22T02:06:16.099Z,6.69
2017-09-22T02:06:20.186Z,6.69
2017-09-22T02:06:24.643Z,6.68
2017-09-22T02:06:29.100Z,6.67
2017-09-22T02:06:33.307Z,6.68
2017-09-22T02:06:37.393Z,6.67
2017-09-22T02:06:41.350Z,6.67
2017-09-22T02:06:45.562Z,6.67
2017-09-22T02:06:49.654Z,6.66
2017-09-22T02:06:53.612Z,6.67
2017-09-22T02:06:57.712Z,6.66
2017-09-22T02:07:01.675Z,6.67
2017-09-22T02:07:05.760Z,6.66
2017-09-22T02:07:09.717Z,6.66
2017-09-22T02:07:13.801Z,6.66
2017-09-22T02:07:17.886Z,6.67
2017-09-22T02:07:22.095Z,6.65
2017-09-22T02:07:26.089Z,6.66
2017-09-22T02:07:29.924Z,6.66
2017-09-22T02:07:33.896Z,6.65
2017-09-22T02:07:37.862Z,6.65
2017-09-22T02:07:41.820Z,6.66
2017-09-22T02:07:45.780Z,6.66
2017-09-22T02:07:49.872Z,6.65
2017-09-22T02:07:53.957Z,6.64
2017-09-22T02:07:58.046Z,6.65
2017-09-22T02:08:02.253Z,6.64
2017-09-22T02:08:06.589Z,6.64
2017-09-22T02:08:10.929Z,6.65
2017-09-22T02:08:15.142Z,6.65
2017-09-22T02:08:19.101Z,6.64
2017-09-22T02:08:23.064Z,6.64
2017-09-22T02:08:27.152Z,6.65
2017-09-22T02:08:31.628Z,6.65
2017-09-22T02:08:35.834Z,6.64
2017-09-22T02:08:40.174Z,6.64
2017-09-22T02:08:44.266Z,6.64
2017-09-22T02:08:48.483Z,6.64
2017-09-22T02:08:52.691Z,6.64
2017-09-22T02:08:57.024Z,6.64
2017-09-22T02:09:01.400Z,6.63
2017-09-22T02:09:05.596Z,6.63
2017-09-22T02:09:09.934Z,6.64
2017-09-22T02:09:14.404Z,6.64
2017-09-22T02:09:18.753Z,6.63
2017-09-22T02:09:22.591Z,6.63
2017-09-22T02:09:26.674Z,6.64
2017-09-22T02:09:31.013Z,6.63
2017-09-22T02:09:35.105Z,6.62
2017-09-22T02:09:39.315Z,6.63
2017-09-22T02:09:43.654Z,6.63
2017-09-22T02:09:47.486Z,6.62
2017-09-22T02:09:51.574Z,6.62
2017-09-22T02:09:55.536Z,6.62
2017-09-22T02:09:59.740Z,6.62
2017-09-22T02:10:04.003Z,6.62
2017-09-22T02:10:08.338Z,6.62
2017-09-22T02:10:12.436Z,6.62
2017-09-22T02:10:16.645Z,6.62
2017-09-22T02:10:21.109Z,6.61
2017-09-22T02:10:25.318Z,6.61
2017-09-22T02:10:29.402Z,6.61
2017-09-22T02:10:33.360Z,6.61
2017-09-22T02:10:37.323Z,6.62
2017-09-22T02:10:41.411Z,6.61
2017-09-22T02:10:45.493Z,6.61
2017-09-22T02:10:49.698Z,6.62
2017-09-22T02:10:53.790Z,6.61
2017-09-22T02:10:57.628Z,6.62
2017-09-22T02:11:01.838Z,6.61
2017-09-22T02:11:06.050Z,6.61
2017-09-22T02:11:10.513Z,6.61
2017-09-22T02:11:14.599Z,6.61
2017-09-22T02:11:18.689Z,6.61
2017-09-22T02:11:22.775Z,6.61
2017-09-22T02:11:27.024Z,6.61
2017-09-22T02:11:30.991Z,6.61
2017-09-22T02:11:35.328Z,6.6
2017-09-22T02:11:39.413Z,6.61
2017-09-22T02:11:43.504Z,6.61
2017-09-22T02:11:47.466Z,6.6
2017-09-22T02:11:51.811Z,6.6
2017-09-22T02:11:55.778Z,6.6
2017-09-22T02:11:59.864Z,6.6
2017-09-22T02:12:04.074Z,6.6
2017-09-22T02:12:08.037Z,6.6
2017-09-22T02:12:12.250Z,6.6
2017-09-22T02:12:16.466Z,6.6
2017-09-22T02:12:20.421Z,6.6
2017-09-22T02:12:24.398Z,6.59
2017-09-22T02:12:28.487Z,6.59
2017-09-22T02:12:32.833Z,6.59
2017-09-22T02:12:36.912Z,6.6
2017-09-22T02:12:41.003Z,6.6
2017-09-22T02:12:45.348Z,6.59
2017-09-22T02:12:49.561Z,6.6
2017-09-22T02:12:53.650Z,6.58
2017-09-22T02:12:57.489Z,6.59
2017-09-22T02:13:01.574Z,6.58
2017-09-22T02:13:06.087Z,6.59
2017-09-22T02:13:10.300Z,6.59
2017-09-22T02:13:14.514Z,6.59
2017-09-22T02:13:18.762Z,6.59
2017-09-22T02:13:22.970Z,6.58
2017-09-22T02:13:27.302Z,6.58
2017-09-22T02:13:31.388Z,6.58
2017-09-22T02:13:35.475Z,6.58
2017-09-22T02:13:39.431Z,6.58
2017-09-22T02:13:43.396Z,6.58
2017-09-22T02:13:47.486Z,6.58
2017-09-22T02:13:51.952Z,6.58
2017-09-22T02:13:56.038Z,6.57
2017-09-22T02:14:00.001Z,6.57
2017-09-22T02:14:04.134Z,6.58
2017-09-22T02:14:08.220Z,6.57
2017-09-22T02:14:12.305Z,6.57
2017-09-22T02:14:16.262Z,6.57
2017-09-22T02:14:20.482Z,6.57
2017-09-22T02:14:24.697Z,6.57
2017-09-22T02:14:28.908Z,6.58
2017-09-22T02:14:33.257Z,6.57
2017-09-22T02:14:37.343Z,6.57
2017-09-22T02:14:41.565Z,6.56
2017-09-22T02:14:45.777Z,6.56
2017-09-22T02:14:49.649Z,6.56
2017-09-22T02:14:53.581Z,6.56
2017-09-22T02:14:57.794Z,6.56
2017-09-22T02:15:01.887Z,6.55
2017-09-22T02:15:06.115Z,6.56
2017-09-22T02:15:10.325Z,6.55
2017-09-22T02:15:14.283Z,6.56
2017-09-22T02:15:18.365Z,6.56
2017-09-22T02:15:22.704Z,6.55
2017-09-22T02:15:26.668Z,6.56
2017-09-22T02:15:31.005Z,6.56
2017-09-22T02:15:35.223Z,6.56
2017-09-22T02:15:39.308Z,6.55
2017-09-22T02:15:43.522Z,6.56
2017-09-22T02:15:47.605Z,6.55
2017-09-22T02:15:51.945Z,6.55
2017-09-22T02:15:56.030Z,6.54
2017-09-22T02:16:00.114Z,6.54
2017-09-22T02:16:04.436Z,6.55
2017-09-22T02:16:08.650Z,6.55
2017-09-22T02:16:12.859Z,6.54
2017-09-22T02:16:17.197Z,6.54
2017-09-22T02:16:21.411Z,6.54
2017-09-22T02:16:25.631Z,6.54
2017-09-22T02:16:29.740Z,6.54
2017-09-22T02:16:33.827Z,6.54
2017-09-22T02:16:37.906Z,6.54
2017-09-22T02:16:41.747Z,6.54
2017-09-22T02:16:45.714Z,6.54
2017-09-22T02:16:50.172Z,6.53
2017-09-22T02:16:54.134Z,6.53
2017-09-22T02:16:58.098Z,6.52
2017-09-22T02:17:02.460Z,6.53
2017-09-22T02:17:06.549Z,6.53
2017-09-22T02:17:10.645Z,6.52
2017-09-22T02:17:14.727Z,6.52
2017-09-22T02:17:18.683Z,6.53
2017-09-22T02:17:23.021Z,6.52
2017-09-22T02:17:26.858Z,6.52
2017-09-22T02:17:30.817Z,6.51
2017-09-22T02:17:35.152Z,6.52
2017-09-22T02:17:39.366Z,6.52
2017-09-22T02:17:43.326Z,6.52
2017-09-22T02:17:47.287Z,6.51
2017-09-22T02:17:51.372Z,6.51
2017-09-22T02:17:55.593Z,6.5
2017-09-22T02:17:59.684Z,6.51
2017-09-22T02:18:04.103Z,6.51
2017-09-22T02:18:08.318Z,6.5
2017-09-22T02:18:12.657Z,6.5
2017-09-22T02:18:16.909Z,6.5
2017-09-22T02:18:20.998Z,6.51
2017-09-22T02:18:25.466Z,6.5
2017-09-22T02:18:29.440Z,6.5
2017-09-22T02:18:33.685Z,6.5
2017-09-22T02:18:37.652Z,6.5
2017-09-22T02:18:41.984Z,6.5
2017-09-22T02:18:46.199Z,6.5
2017-09-22T02:18:50.670Z,6.49
2017-09-22T02:18:54.631Z,6.48
2017-09-22T02:18:58.596Z,6.48
2017-09-22T02:19:02.812Z,6.49
2017-09-22T02:19:07.025Z,6.48
2017-09-22T02:19:10.984Z,6.48
2017-09-22T02:19:15.070Z,6.48
2017-09-22T02:19:19.404Z,6.49
2017-09-22T02:19:23.611Z,6.49
2017-09-22T02:19:27.944Z,6.48
2017-09-22T02:19:32.027Z,6.48
2017-09-22T02:19:35.989Z,6.47
2017-09-22T02:19:39.951Z,6.48
2017-09-22T02:19:44.282Z,6.48
2017-09-22T02:19:48.620Z,6.47
2017-09-22T02:19:52.968Z,6.48
2017-09-22T02:19:56.929Z,6.47
2017-09-22T02:20:01.135Z,6.46
2017-09-22T02:20:04.975Z,6.47
2017-09-22T02:20:09.315Z,6.47
2017-09-22T02:20:13.410Z,6.48
2017-09-22T02:20:17.746Z,6.47
2017-09-22T02:20:21.841Z,6.47
2017-09-22T02:20:25.802Z,6.47
2017-09-22T02:20:29.765Z,6.46
2017-09-22T02:20:33.977Z,6.47
2017-09-22T02:20:38.187Z,6.46
2017-09-22T02:20:42.522Z,6.46
2017-09-22T02:20:46.611Z,6.47
2017-09-22T02:20:50.701Z,6.46
2017-09-22T02:20:54.793Z,6.46
2017-09-22T02:20:59.129Z,6.46
2017-09-22T02:21:03.219Z,6.46
2017-09-22T02:21:07.185Z,6.46
2017-09-22T02:21:11.680Z,6.47
2017-09-22T02:21:15.770Z,6.47
2017-09-22T02:21:19.993Z,6.47
2017-09-22T02:21:24.083Z,6.47
2017-09-22T02:21:28.290Z,6.46
2017-09-22T02:21:32.500Z,6.48
2017-09-22T02:21:36.714Z,6.47
2017-09-22T02:21:40.924Z,6.47
2017-09-22T02:21:44.887Z,6.47
2017-09-22T02:21:49.105Z,6.47
2017-09-22T02:21:53.324Z,6.48
2017-09-22T02:21:57.409Z,6.47
2017-09-22T02:22:01.496Z,6.48
2017-09-22T02:22:05.580Z,6.48
2017-09-22T02:22:09.543Z,6.47
2017-09-22T02:22:13.754Z,6.48
2017-09-22T02:22:17.712Z,6.48
2017-09-22T02:22:21.934Z,6.48
2017-09-22T02:22:26.515Z,6.49
2017-09-22T02:22:30.470Z,6.48
2017-09-22T02:22:34.309Z,6.48
2017-09-22T02:22:38.893Z,6.48
2017-09-22T02:22:42.984Z,6.48
2017-09-22T02:22:47.068Z,6.48
2017-09-22T02:22:51.288Z,6.48
2017-09-22T02:22:55.243Z,6.48
2017-09-22T02:22:59.337Z,6.48
2017-09-22T02:23:03.300Z,6.49
2017-09-22T02:23:07.260Z,6.49
2017-09-22T02:23:11.214Z,6.49
2017-09-22T02:23:15.306Z,6.49
2017-09-22T02:23:19.516Z,6.49
2017-09-22T02:23:23.351Z,6.49
2017-09-22T02:23:27.561Z,6.49
2017-09-22T02:23:31.767Z,6.5
2017-09-22T02:23:35.981Z,6.49
2017-09-22T02:23:40.323Z,6.49
2017-09-22T02:23:44.406Z,6.5
2017-09-22T02:23:48.619Z,6.5
2017-09-22T02:23:52.707Z,6.5
2017-09-22T02:23:56.542Z,6.49
2017-09-22T02:24:00.629Z,6.5
2017-09-22T02:24:04.586Z,6.5
2017-09-22T02:24:08.672Z,6.5
2017-09-22T02:24:12.755Z,6.5
2017-09-22T02:24:16.841Z,6.5
2017-09-22T02:24:20.806Z,6.49
2017-09-22T02:24:25.017Z,6.5
2017-09-22T02:24:29.234Z,6.49
2017-09-22T02:24:33.072Z,6.49
2017-09-22T02:24:37.282Z,6.49
2017-09-22T02:24:41.499Z,6.51
2017-09-22T02:24:45.584Z,6.51
2017-09-22T02:24:49.422Z,6.51
2017-09-22T02:24:53.517Z,6.51
2017-09-22T02:24:57.609Z,6.5
2017-09-22T02:25:01.820Z,6.5
2017-09-22T02:25:06.085Z,6.51
2017-09-22T02:25:10.040Z,6.5
2017-09-22T02:25:14.256Z,6.5
2017-09-22T02:25:18.456Z,6.51
2017-09-22T02:25:22.548Z,6.51
2017-09-22T02:25:26.643Z,6.5
2017-09-22T02:25:30.857Z,6.51
2017-09-22T02:25:35.063Z,6.51
2017-09-22T02:25:39.021Z,6.51
2017-09-22T02:25:43.101Z,6.51
2017-09-22T02:25:47.314Z,6.52
2017-09-22T02:25:51.274Z,6.52
2017-09-22T02:25:55.605Z,6.51
2017-09-22T02:25:59.818Z,6.51
2017-09-22T02:26:04.126Z,6.52
2017-09-22T02:26:08.085Z,6.52
2017-09-22T02:26:12.045Z,6.51
2017-09-22T02:26:16.133Z,6.51
2017-09-22T02:26:20.469Z,6.52
2017-09-22T02:26:24.807Z,6.52
2017-09-22T02:26:28.770Z,6.51
2017-09-22T02:26:32.856Z,6.51
2017-09-22T02:26:36.945Z,6.52
2017-09-22T02:26:40.907Z,6.51
2017-09-22T02:26:45.262Z,6.51
2017-09-22T02:26:49.596Z,6.52
2017-09-22T02:26:53.675Z,6.52
2017-09-22T02:26:57.887Z,6.52
2017-09-22T02:27:02.444Z,6.51
2017-09-22T02:27:06.661Z,6.52
2017-09-22T02:27:10.501Z,6.51
2017-09-22T02:27:14.729Z,6.51
2017-09-22T02:27:18.810Z,6.51
2017-09-22T02:27:22.898Z,6.52
2017-09-22T02:27:26.856Z,6.52
2017-09-22T02:27:30.821Z,6.52
2017-09-22T02:27:34.903Z,6.51
2017-09-22T02:27:38.987Z,6.52
2017-09-22T02:27:42.945Z,6.51
2017-09-22T02:27:47.283Z,6.51
2017-09-22T02:27:51.241Z,6.52
2017-09-22T02:27:55.325Z,6.51
2017-09-22T02:27:59.408Z,6.51
2017-09-22T02:28:03.620Z,6.51
2017-09-22T02:28:07.835Z,6.51
2017-09-22T02:28:11.919Z,6.51
2017-09-22T02:28:16.007Z,6.5
2017-09-22T02:28:20.217Z,6.51
2017-09-22T02:28:24.434Z,6.51
2017-09-22T02:28:28.520Z,6.51
2017-09-22T02:28:32.734Z,6.51
2017-09-22T02:28:36.826Z,6.51
2017-09-22T02:28:40.921Z,6.51
2017-09-22T02:28:45.258Z,6.5
2017-09-22T02:28:49.598Z,6.51
2017-09-22T02:28:53.946Z,6.5
2017-09-22T02:28:58.162Z,6.51
2017-09-22T02:29:02.371Z,6.5
2017-09-22T02:29:06.722Z,6.5
2017-09-22T02:29:10.813Z,6.5
2017-09-22T02:29:14.781Z,6.51
2017-09-22T02:29:18.741Z,6.5
2017-09-22T02:29:22.828Z,6.51
2017-09-22T02:29:26.911Z,6.51
2017-09-22T02:29:30.871Z,6.5
2017-09-22T02:29:34.953Z,6.5
2017-09-22T02:29:38.919Z,6.51
2017-09-22T02:29:43.137Z,6.5
2017-09-22T02:29:47.353Z,6.5
2017-09-22T02:29:51.811Z,6.51
2017-09-22T02:29:55.899Z,6.5
2017-09-22T02:29:59.859Z,6.51
2017-09-22T02:30:04.073Z,6.51
2017-09-22T02:30:08.414Z,6.5
2017-09-22T02:30:12.375Z,6.5
2017-09-22T02:30:16.464Z,6.5
2017-09-22T02:30:20.545Z,6.51
2017-09-22T02:30:24.580Z,6.49
2017-09-22T02:30:28.671Z,6.5
2017-09-22T02:30:32.760Z,6.5
2017-09-22T02:30:36.847Z,6.5
2017-09-22T02:30:41.187Z,6.5
2017-09-22T02:30:45.530Z,6.5
2017-09-22T02:30:49.742Z,6.5
2017-09-22T02:30:53.957Z,6.5
2017-09-22T02:30:57.792Z,6.5
2017-09-22T02:31:02.130Z,6.51
2017-09-22T02:31:06.223Z,6.5
2017-09-22T02:31:10.445Z,6.5
2017-09-22T02:31:14.416Z,6.5
2017-09-22T02:31:18.257Z,6.5
2017-09-22T02:31:22.344Z,6.51
2017-09-22T02:31:26.686Z,6.5
2017-09-22T02:31:30.772Z,6.5
2017-09-22T02:31:34.994Z,6.49
2017-09-22T02:31:39.334Z,6.5
2017-09-22T02:31:43.553Z,6.5
2017-09-22T02:31:48.019Z,6.49
2017-09-22T02:31:52.242Z,6.5
2017-09-22T02:31:56.460Z,6.5
2017-09-22T02:32:00.802Z,6.5
2017-09-22T02:32:05.276Z,6.5
2017-09-22T02:32:09.490Z,6.5
2017-09-22T02:32:13.449Z,6.5
2017-09-22T02:32:17.538Z,6.5
2017-09-22T02:32:21.875Z,6.5
2017-09-22T02:32:26.100Z,6.49
2017-09-22T02:32:30.308Z,6.51
2017-09-22T02:32:34.395Z,6.5
2017-09-22T02:32:38.607Z,6.51
2017-09-22T02:32:42.569Z,6.51
2017-09-22T02:32:46.791Z,6.51
2017-09-22T02:32:51.008Z,6.51
2017-09-22T02:32:55.339Z,6.52
2017-09-22T02:32:59.805Z,6.51
2017-09-22T02:33:03.893Z,6.52
2017-09-22T02:33:07.989Z,6.52
2017-09-22T02:33:12.197Z,6.52
2017-09-22T02:33:16.158Z,6.52
2017-09-22T02:33:20.242Z,6.52
2017-09-22T02:33:24.454Z,6.52
2017-09-22T02:33:28.296Z,6.51
2017-09-22T02:33:32.384Z,6.52
2017-09-22T02:33:36.474Z,6.52
2017-09-22T02:33:40.693Z,6.5
2017-09-22T02:33:45.037Z,6.51
2017-09-22T02:33:49.127Z,6.52
2017-09-22T02:33:53.356Z,6.52
2017-09-22T02:33:57.709Z,6.52
2017-09-22T02:34:01.793Z,6.52
2017-09-22T02:34:06.010Z,6.53
2017-09-22T02:34:10.517Z,6.53
2017-09-22T02:34:14.612Z,6.53
2017-09-22T02:34:18.577Z,6.52
2017-09-22T02:34:22.796Z,6.53
2017-09-22T02:34:27.136Z,6.52
2017-09-22T02:34:31.599Z,6.53
2017-09-22T02:34:35.687Z,6.53
2017-09-22T02:34:39.897Z,6.53
2017-09-22T02:34:43.985Z,6.53
2017-09-22T02:34:48.198Z,6.53
2017-09-22T02:34:52.533Z,6.54
2017-09-22T02:34:56.622Z,6.54
2017-09-22T02:35:00.460Z,6.54
2017-09-22T02:35:04.522Z,6.54
2017-09-22T02:35:08.606Z,6.54
2017-09-22T02:35:12.832Z,6.55
2017-09-22T02:35:17.040Z,6.54
2017-09-22T02:35:21.122Z,6.55
2017-09-22T02:35:25.474Z,6.55
2017-09-22T02:35:29.814Z,6.55
2017-09-22T02:35:34.031Z,6.54
2017-09-22T02:35:38.261Z,6.54
2017-09-22T02:35:42.350Z,6.55
2017-09-22T02:35:46.312Z,6.55
2017-09-22T02:35:50.398Z,6.55
2017-09-22T02:35:54.494Z,6.55
2017-09-22T02:35:58.713Z,6.55
2017-09-22T02:36:03.091Z,6.55
2017-09-22T02:36:07.305Z,6.55
2017-09-22T02:36:11.642Z,6.55
2017-09-22T02:36:15.607Z,6.55
2017-09-22T02:36:19.962Z,6.55
2017-09-22T02:36:24.169Z,6.55
2017-09-22T02:36:28.634Z,6.55
2017-09-22T02:36:32.858Z,6.55
2017-09-22T02:36:36.949Z,6.56
2017-09-22T02:36:41.288Z,6.56
2017-09-22T02:36:45.373Z,6.56
2017-09-22T02:36:49.591Z,6.55
2017-09-22T02:36:53.427Z,6.56
2017-09-22T02:36:57.636Z,6.55
2017-09-22T02:37:01.851Z,6.56
2017-09-22T02:37:05.940Z,6.56
2017-09-22T02:37:09.901Z,6.56
2017-09-22T02:37:13.866Z,6.55
2017-09-22T02:37:17.944Z,6.57
2017-09-22T02:37:22.157Z,6.57
2017-09-22T02:37:26.250Z,6.57
2017-09-22T02:37:30.215Z,6.56
2017-09-22T02:37:34.424Z,6.57
2017-09-22T02:37:38.392Z,6.57
2017-09-22T02:37:42.478Z,6.56
2017-09-22T02:37:47.063Z,6.57
2017-09-22T02:37:51.289Z,6.58
2017-09-22T02:37:55.266Z,6.58
2017-09-22T02:37:59.480Z,6.58
2017-09-22T02:38:03.948Z,6.57
2017-09-22T02:38:07.910Z,6.57
2017-09-22T02:38:12.001Z,6.57
2017-09-22T02:38:16.212Z,6.58
2017-09-22T02:38:20.300Z,6.58
2017-09-22T02:38:24.392Z,6.58
2017-09-22T02:38:28.478Z,6.58
2017-09-22T02:38:32.568Z,6.58
2017-09-22T02:38:36.656Z,6.58
2017-09-22T02:38:40.619Z,6.58
2017-09-22T02:38:44.959Z,6.59
2017-09-22T02:38:49.175Z,6.58
2017-09-22T02:38:53.256Z,6.58
2017-09-22T02:38:57.346Z,6.58
2017-09-22T02:39:01.313Z,6.58
2017-09-22T02:39:05.526Z,6.58
2017-09-22T02:39:09.740Z,6.58
2017-09-22T02:39:13.826Z,6.58
2017-09-22T02:39:17.796Z,6.59
2017-09-22T02:39:21.890Z,6.59
2017-09-22T02:39:25.970Z,6.58
2017-09-22T02:39:30.313Z,6.58
2017-09-22T02:39:34.696Z,6.59
2017-09-22T02:39:38.659Z,6.59
2017-09-22T02:39:42.870Z,6.57
2017-09-22T02:39:46.967Z,6.58
2017-09-22T02:39:50.938Z,6.59
2017-09-22T02:39:55.280Z,6.58
2017-09-22T02:39:59.377Z,6.59
2017-09-22T02:40:03.340Z,6.59
2017-09-22T02:40:07.429Z,6.58
2017-09-22T02:40:11.897Z,6.58
2017-09-22T02:40:15.990Z,6.59
2017-09-22T02:40:20.205Z,6.58
2017-09-22T02:40:24.544Z,6.59
2017-09-22T02:40:28.882Z,6.59
2017-09-22T02:40:33.215Z,6.58
2017-09-22T02:40:37.555Z,6.59
2017-09-22T02:40:41.396Z,6.59
2017-09-22T02:40:45.610Z,6.58
2017-09-22T02:40:49.827Z,6.59
2017-09-22T02:40:53.923Z,6.58
2017-09-22T02:40:58.148Z,6.58
2017-09-22T02:41:02.695Z,6.59
2017-09-22T02:41:06.784Z,6.59
2017-09-22T02:41:10.999Z,6.59
2017-09-22T02:41:15.335Z,6.58
2017-09-22T02:41:19.669Z,6.59
2017-09-22T02:41:24.012Z,6.58
2017-09-22T02:41:28.231Z,6.58
2017-09-22T02:41:32.196Z,6.59
2017-09-22T02:41:36.535Z,6.58
2017-09-22T02:41:40.748Z,6.57
2017-09-22T02:41:45.212Z,6.57
2017-09-22T02:41:49.429Z,6.58
2017-09-22T02:41:53.767Z,6.59
2017-09-22T02:41:57.599Z,6.58
2017-09-22T02:42:01.697Z,6.58
2017-09-22T02:42:06.037Z,6.58
2017-09-22T02:42:10.251Z,6.58
2017-09-22T02:42:14.217Z,6.58
2017-09-22T02:42:18.430Z,6.57
2017-09-22T02:42:22.648Z,6.58
2017-09-22T02:42:26.735Z,6.58
2017-09-22T02:42:31.073Z,6.58
2017-09-22T02:42:35.040Z,6.58
2017-09-22T02:42:39.254Z,6.58
2017-09-22T02:42:43.594Z,6.58
2017-09-22T02:42:47.954Z,6.58
2017-09-22T02:42:52.042Z,6.58
2017-09-22T02:42:56.133Z,6.57
2017-09-22T02:43:00.224Z,6.58
2017-09-22T02:43:04.446Z,6.58
2017-09-22T02:43:08.412Z,6.57
2017-09-22T02:43:12.641Z,6.57
2017-09-22T02:43:16.732Z,6.57
2017-09-22T02:43:21.200Z,6.57
2017-09-22T02:43:25.539Z,6.58
2017-09-22T02:43:29.633Z,6.57
2017-09-22T02:43:33.600Z,6.58
2017-09-22T02:43:38.108Z,6.58
2017-09-22T02:43:42.326Z,6.58
2017-09-22T02:43:46.660Z,6.57
2017-09-22T02:43:50.756Z,6.58
2017-09-22T02:43:54.854Z,6.57
2017-09-22T02:43:58.816Z,6.58
2017-09-22T02:44:03.252Z,6.58
2017-09-22T02:44:07.334Z,6.57
2017-09-22T02:44:11.425Z,6.57
2017-09-22T02:44:15.764Z,6.57
2017-09-22T02:44:20.137Z,6.57
2017-09-22T02:44:24.100Z,6.58
2017-09-22T02:44:28.188Z,6.57
2017-09-22T02:44:32.278Z,6.58
2017-09-22T02:44:36.366Z,6.57
2017-09-22T02:44:40.575Z,6.58
2017-09-22T02:44:44.826Z,6.57
2017-09-22T02:44:49.040Z,6.57
2017-09-22T02:44:53.005Z,6.57
2017-09-22T02:44:56.965Z,6.56
2017-09-22T02:45:01.213Z,6.56
2017-09-22T02:45:05.875Z,6.56
2017-09-22T02:45:10.219Z,6.57
2017-09-22T02:45:14.558Z,6.57
2017-09-22T02:45:18.897Z,6.57
2017-09-22T02:45:23.104Z,6.57
2017-09-22T02:45:27.384Z,6.57
2017-09-22T02:45:31.598Z,6.57
2017-09-22T02:45:35.804Z,6.57
2017-09-22T02:45:40.021Z,6.57
2017-09-22T02:45:44.239Z,6.57
2017-09-22T02:45:48.462Z,6.56
2017-09-22T02:45:52.674Z,6.57
2017-09-22T02:45:56.637Z,6.57
2017-09-22T02:46:00.855Z,6.57
2017-09-22T02:46:04.947Z,6.56
2017-09-22T02:46:09.030Z,6.56
2017-09-22T02:46:13.247Z,6.55
2017-09-22T02:46:17.084Z,6.56
2017-09-22T02:46:21.417Z,6.57
2017-09-22T02:46:25.631Z,6.55
2017-09-22T02:46:29.969Z,6.57
2017-09-22T02:46:34.190Z,6.55
2017-09-22T02:46:38.404Z,6.56
2017-09-22T02:46:42.499Z,6.55
2017-09-22T02:46:46.846Z,6.56
2017-09-22T02:46:51.184Z,6.56
2017-09-22T02:46:55.399Z,6.55
2017-09-22T02:46:59.868Z,6.56
2017-09-22T02:47:04.192Z,6.56
2017-09-22T02:47:08.282Z,6.56
2017-09-22T02:47:12.493Z,6.55
2017-09-22T02:47:16.830Z,6.55
2017-09-22T02:47:21.181Z,6.55
2017-09-22T02:47:25.273Z,6.56
2017-09-22T02:47:29.620Z,6.56
2017-09-22T02:47:33.714Z,6.56
2017-09-22T02:47:37.680Z,6.56
2017-09-22T02:47:41.772Z,6.55
2017-09-22T02:47:45.855Z,6.55
2017-09-22T02:47:50.204Z,6.55
2017-09-22T02:47:54.543Z,6.55
2017-09-22T02:47:58.627Z,6.55
2017-09-22T02:48:02.712Z,6.56
2017-09-22T02:48:07.179Z,6.55
2017-09-22T02:48:11.265Z,6.56
2017-09-22T02:48:15.484Z,6.55
2017-09-22T02:48:19.952Z,6.55
2017-09-22T02:48:24.170Z,6.55
2017-09-22T02:48:28.391Z,6.56
2017-09-22T02:48:32.735Z,6.55
2017-09-22T02:48:36.828Z,6.55
2017-09-22T02:48:41.045Z,6.54
2017-09-22T02:48:45.508Z,6.55
2017-09-22T02:48:49.739Z,6.55
2017-09-22T02:48:54.338Z,6.56
2017-09-22T02:48:58.421Z,6.54
2017-09-22T02:49:02.762Z,6.55
2017-09-22T02:49:06.847Z,6.54
2017-09-22T02:49:11.068Z,6.55
2017-09-22T02:49:15.284Z,6.55
2017-09-22T02:49:19.501Z,6.55
2017-09-22T02:49:23.715Z,6.55
2017-09-22T02:49:27.555Z,6.55
2017-09-22T02:49:31.647Z,6.54
2017-09-22T02:49:35.614Z,6.54
2017-09-22T02:49:39.700Z,6.55
2017-09-22T02:49:43.657Z,6.54
2017-09-22T02:49:48.000Z,6.55
2017-09-22T02:49:52.218Z,6.55
2017-09-22T02:49:56.307Z,6.55
2017-09-22T02:50:00.517Z,6.55
2017-09-22T02:50:04.615Z,6.54
2017-09-22T02:50:08.828Z,6.55
2017-09-22T02:50:12.921Z,6.54
2017-09-22T02:50:17.140Z,6.54
2017-09-22T02:50:21.229Z,6.55
2017-09-22T02:50:25.439Z,6.55
2017-09-22T02:50:29.401Z,6.55
2017-09-22T02:50:33.614Z,6.55
2017-09-22T02:50:37.710Z,6.54
2017-09-22T02:50:41.793Z,6.54
2017-09-22T02:50:45.882Z,6.54
2017-09-22T02:50:49.969Z,6.54
2017-09-22T02:50:54.177Z,6.54
2017-09-22T02:50:58.641Z,6.53
2017-09-22T02:51:02.724Z,6.54
2017-09-22T02:51:06.689Z,6.54
2017-09-22T02:51:10.651Z,6.53
2017-09-22T02:51:15.016Z,6.53
2017-09-22T02:51:19.230Z,6.54
2017-09-22T02:51:23.568Z,6.54
2017-09-22T02:51:27.776Z,6.54
2017-09-22T02:51:31.992Z,6.54
2017-09-22T02:51:36.078Z,6.53
2017-09-22T02:51:40.429Z,6.54
2017-09-22T02:51:44.518Z,6.54
2017-09-22T02:51:48.730Z,6.54
2017-09-22T02:51:53.190Z,6.54
2017-09-22T02:51:57.526Z,6.54
2017-09-22T02:52:01.617Z,6.54
2017-09-22T02:52:05.707Z,6.54
2017-09-22T02:52:09.919Z,6.54
2017-09-22T02:52:14.006Z,6.54
2017-09-22T02:52:18.344Z,6.54
2017-09-22T02:52:22.719Z,6.54
2017-09-22T02:52:26.809Z,6.55
2017-09-22T02:52:30.896Z,6.54
2017-09-22T02:52:34.862Z,6.55
2017-09-22T02:52:38.825Z,6.54
2017-09-22T02:52:43.296Z,6.54
2017-09-22T02:52:47.261Z,6.54
2017-09-22T02:52:51.727Z,6.54
2017-09-22T02:52:55.690Z,6.54
2017-09-22T02:52:59.906Z,6.54
2017-09-22T02:53:04.367Z,6.54
2017-09-22T02:53:08.457Z,6.54
2017-09-22T02:53:12.720Z,6.54
2017-09-22T02:53:16.806Z,6.54
2017-09-22T02:53:20.893Z,6.54
2017-09-22T02:53:25.105Z,6.54
2017-09-22T02:53:29.193Z,6.55
2017-09-22T02:53:33.157Z,6.55
2017-09-22T02:53:37.373Z,6.54
2017-09-22T02:53:41.591Z,6.54
2017-09-22T02:53:45.554Z,6.54
2017-09-22T02:53:49.893Z,6.54
2017-09-22T02:53:54.233Z,6.54
2017-09-22T02:53:58.330Z,6.55
2017-09-22T02:54:02.543Z,6.54
2017-09-22T02:54:06.761Z,6.55
2017-09-22T02:54:10.847Z,6.55
2017-09-22T02:54:15.231Z,6.54
2017-09-22T02:54:19.446Z,6.54
2017-09-22T02:54:23.667Z,6.54
2017-09-22T02:54:27.880Z,6.54
2017-09-22T02:54:31.718Z,6.55
2017-09-22T02:54:35.800Z,6.54
2017-09-22T02:54:40.016Z,6.55
2017-09-22T02:54:44.112Z,6.55
2017-09-22T02:54:48.454Z,6.55
2017-09-22T02:54:52.296Z,6.55
2017-09-22T02:54:56.769Z,6.54
2017-09-22T02:55:01.102Z,6.55
2017-09-22T02:55:05.615Z,6.54
2017-09-22T02:55:09.831Z,6.55
2017-09-22T02:55:13.921Z,6.54
2017-09-22T02:55:18.262Z,6.55
2017-09-22T02:55:22.470Z,6.55
2017-09-22T02:55:26.684Z,6.54
2017-09-22T02:55:30.780Z,6.54
2017-09-22T02:55:34.873Z,6.55
2017-09-22T02:55:39.090Z,6.54
2017-09-22T02:55:43.436Z,6.55
2017-09-22T02:55:47.525Z,6.55
2017-09-22T02:55:51.990Z,6.54
2017-09-22T02:55:55.952Z,6.54
2017-09-22T02:56:00.294Z,6.54
2017-09-22T02:56:04.429Z,6.54
2017-09-22T02:56:08.393Z,6.55
2017-09-22T02:56:12.481Z,6.54
2017-09-22T02:56:16.445Z,6.54
2017-09-22T02:56:20.659Z,6.54
2017-09-22T02:56:24.752Z,6.55